createdAt,value
2016-09-08T00:00:22.377Z,0
2016-09-08T00:01:22.370Z,0
2016-09-08T00:02:22.338Z,0
2016-09-08T00:03:22.318Z,0
2016-09-08T00:04:22.296Z,0
2016-09-08T00:05:22.274Z,0
2016-09-08T00:06:22.255Z,0
2016-09-08T00:07:22.231Z,0
2016-09-08T00:08:22.214Z,0
2016-09-08T00:09:22.190Z,0
2016-09-08T00:10:22.182Z,0
2016-09-08T00:11:22.156Z,0
2016-09-08T00:12:22.144Z,0
2016-09-08T00:13:22.122Z,0
2016-09-08T00:14:22.094Z,0
2016-09-08T00:15:22.074Z,0
2016-09-08T00:16:22.052Z,0
2016-09-08T00:17:22.038Z,0
2016-09-08T00:18:22.012Z,0
2016-09-08T00:19:21.997Z,0
2016-09-08T00:20:21.972Z,0
2016-09-08T00:21:21.955Z,0
2016-09-08T00:22:21.932Z,0
2016-09-08T00:23:21.908Z,0
2016-09-08T00:24:21.890Z,0
2016-09-08T00:25:21.867Z,0
2016-09-08T00:26:21.849Z,0
2016-09-08T00:27:21.828Z,0
2016-09-08T00:28:21.807Z,0
2016-09-08T00:29:21.795Z,0
2016-09-08T00:30:21.766Z,0
2016-09-08T00:31:21.746Z,0
2016-09-08T00:32:21.722Z,0
2016-09-08T00:33:21.704Z,0
2016-09-08T00:34:21.681Z,0
2016-09-08T00:35:21.665Z,0
2016-09-08T00:36:21.649Z,0
2016-09-08T00:37:21.620Z,0
2016-09-08T00:38:21.600Z,0
2016-09-08T00:39:21.585Z,0
2016-09-08T00:40:21.561Z,0
2016-09-08T00:41:21.541Z,0
2016-09-08T00:42:21.518Z,0
2016-09-08T00:43:21.499Z,0
2016-09-08T00:44:21.477Z,0
2016-09-08T00:45:21.466Z,0
2016-09-08T00:46:21.435Z,0
2016-09-08T00:47:21.416Z,0
2016-09-08T00:48:21.395Z,0
2016-09-08T00:49:21.371Z,0
2016-09-08T00:50:21.355Z,0
2016-09-08T00:51:21.628Z,0
2016-09-08T00:52:21.311Z,0
2016-09-08T00:53:21.287Z,0
2016-09-08T00:54:21.271Z,0
2016-09-08T00:55:21.246Z,0
2016-09-08T00:56:21.229Z,0
2016-09-08T00:57:21.204Z,0
2016-09-08T00:58:21.186Z,0
2016-09-08T00:59:21.162Z,0
2016-09-08T01:00:21.145Z,0
2016-09-08T01:01:21.123Z,0
2016-09-08T01:02:21.103Z,0
2016-09-08T01:03:21.088Z,0
2016-09-08T01:04:21.063Z,0
2016-09-08T01:05:21.041Z,0
2016-09-08T01:06:21.020Z,0
2016-09-08T01:07:20.996Z,0
2016-09-08T01:08:20.979Z,0
2016-09-08T01:09:20.961Z,0
2016-09-08T01:10:20.947Z,0
2016-09-08T01:11:20.921Z,0
2016-09-08T01:12:20.892Z,0
2016-09-08T01:13:20.874Z,0
2016-09-08T01:14:20.850Z,0
2016-09-08T01:15:20.831Z,0
2016-09-08T01:16:20.808Z,0
2016-09-08T01:17:20.791Z,0
2016-09-08T01:18:20.765Z,0
2016-09-08T01:19:20.748Z,0
2016-09-08T01:20:20.724Z,0
2016-09-08T01:21:20.707Z,0
2016-09-08T01:22:20.683Z,0
2016-09-08T01:23:20.669Z,0
2016-09-08T01:24:20.642Z,0
2016-09-08T01:25:20.622Z,0
2016-09-08T01:26:20.601Z,0
2016-09-08T01:27:20.580Z,0
2016-09-08T01:28:20.566Z,0
2016-09-08T01:29:20.537Z,0
2016-09-08T01:30:20.518Z,0
2016-09-08T01:31:20.502Z,0
2016-09-08T01:32:20.473Z,0
2016-09-08T01:33:20.456Z,0
2016-09-08T01:34:20.433Z,0
2016-09-08T01:35:20.414Z,0
2016-09-08T01:36:20.394Z,0
2016-09-08T01:37:20.369Z,0
2016-09-08T01:38:20.349Z,0
2016-09-08T01:39:20.337Z,0
2016-09-08T01:40:20.310Z,0
2016-09-08T01:41:20.282Z,0
2016-09-08T01:42:20.265Z,0
2016-09-08T01:43:20.241Z,0
2016-09-08T01:44:20.224Z,0
2016-09-08T01:45:20.200Z,0
2016-09-08T01:46:20.181Z,0
2016-09-08T01:47:20.162Z,0
2016-09-08T01:48:20.139Z,0
2016-09-08T01:49:20.117Z,0
2016-09-08T01:50:20.097Z,0
2016-09-08T01:51:20.074Z,0
2016-09-08T01:52:20.069Z,0
2016-09-08T01:53:20.039Z,0
2016-09-08T01:54:20.013Z,0
2016-09-08T01:55:19.991Z,0
2016-09-08T01:56:19.971Z,0
2016-09-08T01:57:19.947Z,0
2016-09-08T01:58:19.934Z,0
2016-09-08T01:59:19.906Z,0
2016-09-08T02:00:19.886Z,0
2016-09-08T02:01:19.865Z,0
2016-09-08T02:02:19.840Z,0
2016-09-08T02:03:19.822Z,0
2016-09-08T02:04:19.798Z,0
2016-09-08T02:05:19.781Z,0
2016-09-08T02:06:19.755Z,0
2016-09-08T02:07:19.739Z,0
2016-09-08T02:08:19.715Z,0
2016-09-08T02:09:19.698Z,0
2016-09-08T02:10:19.675Z,0
2016-09-08T02:11:19.655Z,0
2016-09-08T02:12:19.634Z,0
2016-09-08T02:13:19.613Z,0
2016-09-08T02:14:19.641Z,0
2016-09-08T02:15:19.571Z,0
2016-09-08T02:16:19.549Z,0
2016-09-08T02:17:19.529Z,0
2016-09-08T02:18:19.507Z,0
2016-09-08T02:19:19.486Z,0
2016-09-08T02:20:19.463Z,0
2016-09-08T02:21:19.455Z,0
2016-09-08T02:22:19.424Z,0
2016-09-08T02:23:19.398Z,0
2016-09-08T02:24:19.381Z,0
2016-09-08T02:25:19.356Z,0
2016-09-08T02:26:19.347Z,0
2016-09-08T02:27:19.313Z,0
2016-09-08T02:28:19.313Z,0
2016-09-08T02:29:19.279Z,0
2016-09-08T02:30:19.257Z,0
2016-09-08T02:31:19.237Z,0
2016-09-08T02:32:19.213Z,0
2016-09-08T02:33:19.190Z,0
2016-09-08T02:34:19.168Z,0
2016-09-08T02:35:19.150Z,0
2016-09-08T02:36:19.128Z,0
2016-09-08T02:37:19.109Z,0
2016-09-08T02:38:19.091Z,0
2016-09-08T02:39:19.070Z,0
2016-09-08T02:40:19.046Z,0
2016-09-08T02:41:19.030Z,0
2016-09-08T02:42:19.015Z,0
2016-09-08T02:43:18.981Z,0
2016-09-08T02:44:18.979Z,0
2016-09-08T02:45:19.238Z,0
2016-09-08T02:46:18.916Z,0
2016-09-08T02:47:18.898Z,0
2016-09-08T02:48:18.873Z,0
2016-09-08T02:49:18.853Z,0
2016-09-08T02:50:18.830Z,0
2016-09-08T02:51:18.815Z,0
2016-09-08T02:52:18.789Z,0
2016-09-08T02:53:18.770Z,0
2016-09-08T02:54:18.751Z,0
2016-09-08T02:55:18.731Z,0
2016-09-08T02:56:18.708Z,0
2016-09-08T02:57:18.703Z,0
2016-09-08T02:58:18.664Z,0
2016-09-08T02:59:18.643Z,0
2016-09-08T03:00:18.626Z,0
2016-09-08T03:01:18.608Z,0
2016-09-08T03:02:18.597Z,0
2016-09-08T03:03:18.561Z,0
2016-09-08T03:04:18.540Z,0
2016-09-08T03:05:18.515Z,0
2016-09-08T03:06:18.505Z,0
2016-09-08T03:07:18.471Z,0
2016-09-08T03:08:18.453Z,0
2016-09-08T03:09:18.431Z,0
2016-09-08T03:10:18.415Z,0
2016-09-08T03:11:18.391Z,0
2016-09-08T03:12:18.369Z,0
2016-09-08T03:13:18.358Z,0
2016-09-08T03:14:18.325Z,0
2016-09-08T03:15:18.304Z,0
2016-09-08T03:16:18.284Z,0
2016-09-08T03:17:18.264Z,0
2016-09-08T03:18:18.239Z,0
2016-09-08T03:19:18.221Z,0
2016-09-08T03:20:18.198Z,0
2016-09-08T03:21:18.180Z,0
2016-09-08T03:22:18.158Z,0
2016-09-08T03:23:18.438Z,0
2016-09-08T03:24:18.115Z,0
2016-09-08T03:25:18.102Z,0
2016-09-08T03:26:18.070Z,0
2016-09-08T03:27:18.056Z,0
2016-09-08T03:28:18.039Z,0
2016-09-08T03:29:18.006Z,0
2016-09-08T03:30:18.002Z,0
2016-09-08T03:31:17.966Z,0
2016-09-08T03:32:17.948Z,0
2016-09-08T03:33:17.926Z,0
2016-09-08T03:34:17.904Z,0
2016-09-08T03:35:17.890Z,0
2016-09-08T03:36:17.868Z,0
2016-09-08T03:37:17.840Z,0
2016-09-08T03:38:17.823Z,0
2016-09-08T03:39:17.800Z,0
2016-09-08T03:40:17.781Z,0
2016-09-08T03:41:17.755Z,0
2016-09-08T03:42:17.734Z,0
2016-09-08T03:43:17.714Z,0
2016-09-08T03:44:17.695Z,0
2016-09-08T03:45:17.669Z,0
2016-09-08T03:46:17.648Z,0
2016-09-08T03:47:17.623Z,0
2016-09-08T03:48:17.607Z,0
2016-09-08T03:49:17.580Z,0
2016-09-08T03:50:17.566Z,0
2016-09-08T03:51:17.543Z,0
2016-09-08T03:52:17.522Z,0
2016-09-08T03:53:17.502Z,0
2016-09-08T03:54:17.479Z,0
2016-09-08T03:55:17.453Z,0
2016-09-08T03:56:17.436Z,0
2016-09-08T03:57:17.414Z,0
2016-09-08T03:58:17.391Z,0
2016-09-08T03:59:17.395Z,0
2016-09-08T04:00:17.353Z,0
2016-09-08T04:01:17.330Z,0
2016-09-08T04:02:17.308Z,0
2016-09-08T04:03:17.290Z,0
2016-09-08T04:04:17.266Z,0
2016-09-08T04:05:17.244Z,0
2016-09-08T04:06:17.227Z,0
2016-09-08T04:07:17.200Z,0
2016-09-08T04:08:17.182Z,0
2016-09-08T04:09:17.156Z,0
2016-09-08T04:10:17.151Z,0
2016-09-08T04:11:17.117Z,0
2016-09-08T04:12:17.096Z,0
2016-09-08T04:13:17.073Z,0
2016-09-08T04:14:17.050Z,0
2016-09-08T04:15:17.033Z,0
2016-09-08T04:16:17.006Z,0
2016-09-08T04:17:16.989Z,4
2016-09-08T04:18:16.968Z,4
2016-09-08T04:19:16.958Z,0
2016-09-08T04:20:16.933Z,4
2016-09-08T04:21:16.904Z,4
2016-09-08T04:22:16.884Z,4
2016-09-08T04:23:16.861Z,4
2016-09-08T04:24:16.844Z,4
2016-09-08T04:25:16.816Z,4
2016-09-08T04:26:16.798Z,8
2016-09-08T04:27:16.774Z,8
2016-09-08T04:28:16.754Z,12
2016-09-08T04:29:16.734Z,12
2016-09-08T04:30:16.713Z,16
2016-09-08T04:31:16.687Z,20
2016-09-08T04:32:16.666Z,20
2016-09-08T04:33:16.648Z,28
2016-09-08T04:34:16.623Z,32
2016-09-08T04:35:16.604Z,40
2016-09-08T04:36:16.582Z,48
2016-09-08T04:37:16.564Z,52
2016-09-08T04:38:16.539Z,64
2016-09-08T04:39:16.520Z,76
2016-09-08T04:40:16.495Z,84
2016-09-08T04:41:16.482Z,96
2016-09-08T04:42:16.454Z,112
2016-09-08T04:43:16.429Z,128
2016-09-08T04:44:16.414Z,144
2016-09-08T04:45:16.388Z,168
2016-09-08T04:46:16.372Z,188
2016-09-08T04:47:16.346Z,212
2016-09-08T04:48:16.331Z,236
2016-09-08T04:49:16.305Z,264
2016-09-08T04:50:16.286Z,292
2016-09-08T04:51:16.261Z,320
2016-09-08T04:52:16.238Z,352
2016-09-08T04:53:16.220Z,384
2016-09-08T04:54:16.193Z,412
2016-09-08T04:55:16.179Z,452
2016-09-08T04:56:16.154Z,488
2016-09-08T04:57:16.141Z,524
2016-09-08T04:58:16.112Z,568
2016-09-08T04:59:16.091Z,612
2016-09-08T05:00:16.079Z,652
2016-09-08T05:01:16.053Z,696
2016-09-08T05:02:16.026Z,744
2016-09-08T05:03:16.005Z,796
2016-09-08T05:04:15.984Z,848
2016-09-08T05:05:15.959Z,896
2016-09-08T05:06:15.942Z,944
2016-09-08T05:07:15.920Z,1000
2016-09-08T05:08:15.899Z,1060
2016-09-08T05:09:15.879Z,1124
2016-09-08T05:10:15.858Z,1192
2016-09-08T05:11:15.839Z,1260
2016-09-08T05:12:15.814Z,1320
2016-09-08T05:13:15.794Z,1388
2016-09-08T05:14:16.070Z,1452
2016-09-08T05:15:15.749Z,1504
2016-09-08T05:16:15.724Z,1564
2016-09-08T05:17:15.708Z,1640
2016-09-08T05:18:15.688Z,1712
2016-09-08T05:19:15.666Z,1772
2016-09-08T05:20:15.655Z,1828
2016-09-08T05:21:15.624Z,1904
2016-09-08T05:22:15.600Z,2024
2016-09-08T05:23:15.579Z,2152
2016-09-08T05:24:15.560Z,2252
2016-09-08T05:25:15.536Z,2324
2016-09-08T05:26:15.518Z,2392
2016-09-08T05:27:15.497Z,2448
2016-09-08T05:28:15.478Z,2504
2016-09-08T05:29:15.456Z,2568
2016-09-08T05:30:15.434Z,2660
2016-09-08T05:31:15.412Z,2772
2016-09-08T05:32:15.387Z,2852
2016-09-08T05:33:15.385Z,2924
2016-09-08T05:34:15.352Z,2992
2016-09-08T05:35:15.724Z,3060
2016-09-08T05:36:15.305Z,3128
2016-09-08T05:37:15.286Z,3184
2016-09-08T05:38:15.269Z,3244
2016-09-08T05:39:15.244Z,3296
2016-09-08T05:40:15.230Z,3356
2016-09-08T05:41:15.212Z,3412
2016-09-08T05:42:15.183Z,3464
2016-09-08T05:43:15.161Z,3504
2016-09-08T05:44:15.840Z,3552
2016-09-08T05:45:15.124Z,3604
2016-09-08T05:46:15.101Z,3644
2016-09-08T05:47:15.079Z,3692
2016-09-08T05:48:15.055Z,3732
2016-09-08T05:49:15.053Z,3772
2016-09-08T05:50:15.013Z,3812
2016-09-08T05:51:14.996Z,3852
2016-09-08T05:52:14.973Z,3892
2016-09-08T05:53:14.955Z,3936
2016-09-08T05:54:14.934Z,3988
2016-09-08T05:55:14.920Z,4028
2016-09-08T05:56:14.896Z,4072
2016-09-08T05:57:14.867Z,4120
2016-09-08T05:58:14.856Z,4168
2016-09-08T05:59:14.828Z,4216
2016-09-08T06:00:14.812Z,4264
2016-09-08T06:01:14.789Z,4312
2016-09-08T06:02:14.777Z,4344
2016-09-08T06:03:14.753Z,4380
2016-09-08T06:04:14.731Z,4416
2016-09-08T06:05:14.711Z,4456
2016-09-08T06:06:14.693Z,4480
2016-09-08T06:07:14.670Z,4500
2016-09-08T06:08:14.651Z,4532
2016-09-08T06:09:14.629Z,4556
2016-09-08T06:10:14.615Z,4584
2016-09-08T06:11:14.596Z,4608
2016-09-08T06:12:14.566Z,4636
2016-09-08T06:13:14.550Z,4664
2016-09-08T06:14:14.530Z,4692
2016-09-08T06:15:14.510Z,4732
2016-09-08T06:16:14.496Z,4772
2016-09-08T06:17:14.472Z,4812
2016-09-08T06:18:14.451Z,4840
2016-09-08T06:19:14.430Z,4856
2016-09-08T06:20:14.420Z,4872
2016-09-08T06:21:14.386Z,4876
2016-09-08T06:22:14.669Z,4888
2016-09-08T06:23:14.348Z,4912
2016-09-08T06:24:14.330Z,4940
2016-09-08T06:25:14.314Z,4956
2016-09-08T06:26:14.301Z,4964
2016-09-08T06:27:14.274Z,4980
2016-09-08T06:28:14.258Z,5000
2016-09-08T06:29:14.234Z,5016
2016-09-08T06:30:14.211Z,5032
2016-09-08T06:31:14.209Z,5064
2016-09-08T06:32:14.171Z,5096
2016-09-08T06:33:14.745Z,5136
2016-09-08T06:34:14.134Z,5172
2016-09-08T06:35:14.541Z,5192
2016-09-08T06:36:15.123Z,5220
2016-09-08T06:37:14.759Z,5264
2016-09-08T06:38:14.409Z,5312
2016-09-08T06:39:14.403Z,5352
2016-09-08T06:40:14.349Z,5380
2016-09-08T06:41:14.990Z,5404
2016-09-08T06:42:14.647Z,5420
2016-09-08T06:43:14.323Z,5456
2016-09-08T06:44:14.295Z,5488
2016-09-08T06:45:14.939Z,5504
2016-09-08T06:46:15.272Z,5532
2016-09-08T06:47:14.590Z,5556
2016-09-08T06:48:14.853Z,5584
2016-09-08T06:49:14.877Z,5600
2016-09-08T06:50:14.486Z,5624
2016-09-08T06:51:14.507Z,5640
2016-09-08T06:52:13.792Z,5660
2016-09-08T06:53:13.770Z,5672
2016-09-08T06:54:13.765Z,5692
2016-09-08T06:55:13.744Z,5712
2016-09-08T06:56:13.720Z,5728
2016-09-08T06:57:13.695Z,5760
2016-09-08T06:58:13.679Z,5780
2016-09-08T06:59:13.660Z,5804
2016-09-08T07:00:13.643Z,5836
2016-09-08T07:01:13.621Z,5848
2016-09-08T07:02:13.704Z,5884
2016-09-08T07:03:13.588Z,5896
2016-09-08T07:04:13.630Z,5912
2016-09-08T07:05:13.552Z,5928
2016-09-08T07:06:13.533Z,5944
2016-09-08T07:07:13.531Z,5972
2016-09-08T07:08:13.495Z,5984
2016-09-08T07:09:13.473Z,5992
2016-09-08T07:10:13.464Z,6016
2016-09-08T07:11:13.441Z,6036
2016-09-08T07:12:13.430Z,6068
2016-09-08T07:13:13.705Z,6076
2016-09-08T07:14:13.387Z,6104
2016-09-08T07:15:13.366Z,6116
2016-09-08T07:16:13.358Z,6140
2016-09-08T07:17:13.333Z,6152
2016-09-08T07:18:13.313Z,6184
2016-09-08T07:19:13.297Z,6220
2016-09-08T07:20:13.280Z,6204
2016-09-08T07:21:13.261Z,6196
2016-09-08T07:22:13.244Z,6200
2016-09-08T07:23:13.223Z,6204
2016-09-08T07:24:13.220Z,6224
2016-09-08T07:25:13.498Z,6232
2016-09-08T07:26:13.174Z,6244
2016-09-08T07:27:13.460Z,6280
2016-09-08T07:28:13.138Z,6304
2016-09-08T07:29:13.119Z,6316
2016-09-08T07:30:13.098Z,6352
2016-09-08T07:31:13.083Z,6368
2016-09-08T07:32:13.062Z,6384
2016-09-08T07:33:13.050Z,6404
2016-09-08T07:34:13.031Z,6424
2016-09-08T07:35:13.014Z,6432
2016-09-08T07:36:13.007Z,6420
2016-09-08T07:37:12.984Z,6404
2016-09-08T07:38:12.962Z,6392
2016-09-08T07:39:12.940Z,6408
2016-09-08T07:40:12.928Z,6420
2016-09-08T07:41:12.907Z,6416
2016-09-08T07:42:12.892Z,6420
2016-09-08T07:43:12.874Z,6416
2016-09-08T07:44:12.856Z,6432
2016-09-08T07:45:12.840Z,6452
2016-09-08T07:46:12.822Z,6468
2016-09-08T07:47:12.809Z,6476
2016-09-08T07:48:12.831Z,6472
2016-09-08T07:49:12.772Z,6504
2016-09-08T07:50:12.752Z,6508
2016-09-08T07:51:12.737Z,6500
2016-09-08T07:52:12.718Z,6508
2016-09-08T07:53:12.704Z,6504
2016-09-08T07:54:12.688Z,6516
2016-09-08T07:55:12.729Z,6512
2016-09-08T07:56:12.651Z,6528
2016-09-08T07:57:12.632Z,6536
2016-09-08T07:58:12.627Z,6544
2016-09-08T07:59:12.600Z,6516
2016-09-08T08:00:12.596Z,6520
2016-09-08T08:01:12.570Z,6532
2016-09-08T08:02:12.573Z,6516
2016-09-08T08:03:12.536Z,6516
2016-09-08T08:04:12.518Z,6536
2016-09-08T08:05:12.502Z,6520
2016-09-08T08:06:12.484Z,6516
2016-09-08T08:07:12.477Z,6516
2016-09-08T08:08:12.449Z,6516
2016-09-08T08:09:12.439Z,6504
2016-09-08T08:10:12.418Z,6480
2016-09-08T08:11:12.403Z,6468
2016-09-08T08:12:12.385Z,6480
2016-09-08T08:13:12.670Z,6504
2016-09-08T08:14:12.351Z,6508
2016-09-08T08:15:12.335Z,6488
2016-09-08T08:16:12.620Z,6504
2016-09-08T08:17:12.305Z,6512
2016-09-08T08:18:12.303Z,6532
2016-09-08T08:19:12.270Z,6560
2016-09-08T08:20:12.263Z,6572
2016-09-08T08:21:12.239Z,6568
2016-09-08T08:22:12.236Z,6572
2016-09-08T08:23:12.219Z,6536
2016-09-08T08:24:12.193Z,6568
2016-09-08T08:25:12.174Z,6620
2016-09-08T08:26:12.478Z,6656
2016-09-08T08:27:12.150Z,6680
2016-09-08T08:28:12.127Z,6704
2016-09-08T08:29:12.113Z,6712
2016-09-08T08:30:12.092Z,6728
2016-09-08T08:31:12.080Z,6764
2016-09-08T08:32:12.063Z,6792
2016-09-08T08:33:12.050Z,6824
2016-09-08T08:34:12.043Z,6828
2016-09-08T08:35:12.023Z,6828
2016-09-08T08:36:12.001Z,6888
2016-09-08T08:37:11.980Z,6956
2016-09-08T08:38:11.970Z,6976
2016-09-08T08:39:11.956Z,6936
2016-09-08T08:40:11.938Z,6976
2016-09-08T08:41:11.921Z,6948
2016-09-08T08:42:11.910Z,6984
2016-09-08T08:43:11.893Z,6984
2016-09-08T08:44:11.883Z,7004
2016-09-08T08:45:11.858Z,7000
2016-09-08T08:46:11.840Z,7044
2016-09-08T08:47:11.827Z,7096
2016-09-08T08:48:11.816Z,7160
2016-09-08T08:49:11.805Z,7224
2016-09-08T08:50:11.781Z,7268
2016-09-08T08:51:11.765Z,7260
2016-09-08T08:52:11.748Z,7304
2016-09-08T08:53:11.734Z,7348
2016-09-08T08:54:11.725Z,7344
2016-09-08T08:55:11.997Z,7352
2016-09-08T08:56:11.705Z,7328
2016-09-08T08:57:11.669Z,7192
2016-09-08T08:58:11.657Z,7208
2016-09-08T08:59:11.642Z,7256
2016-09-08T09:00:11.632Z,7260
2016-09-08T09:01:11.615Z,7268
2016-09-08T09:02:11.594Z,7260
2016-09-08T09:03:11.583Z,7260
2016-09-08T09:04:11.566Z,7216
2016-09-08T09:05:11.553Z,7256
2016-09-08T09:06:11.536Z,7256
2016-09-08T09:07:11.523Z,7268
2016-09-08T09:08:11.505Z,7296
2016-09-08T09:09:11.502Z,7240
2016-09-08T09:10:11.477Z,7260
2016-09-08T09:11:11.763Z,7332
2016-09-08T09:12:11.448Z,7352
2016-09-08T09:13:11.429Z,7384
2016-09-08T09:14:11.417Z,7324
2016-09-08T09:15:11.409Z,7260
2016-09-08T09:16:11.387Z,7248
2016-09-08T09:17:11.372Z,7224
2016-09-08T09:18:11.358Z,7276
2016-09-08T09:19:11.346Z,7268
2016-09-08T09:20:11.324Z,7316
2016-09-08T09:21:11.314Z,7344
2016-09-08T09:22:11.302Z,7324
2016-09-08T09:23:11.292Z,7296
2016-09-08T09:24:11.275Z,7308
2016-09-08T09:25:11.258Z,7328
2016-09-08T09:26:11.247Z,7352
2016-09-08T09:27:11.240Z,7388
2016-09-08T09:28:11.224Z,7368
2016-09-08T09:29:11.199Z,7364
2016-09-08T09:30:11.184Z,7428
2016-09-08T09:31:11.466Z,7424
2016-09-08T09:32:11.155Z,7436
2016-09-08T09:33:11.137Z,7424
2016-09-08T09:34:11.127Z,7352
2016-09-08T09:35:11.112Z,7320
2016-09-08T09:36:11.105Z,7324
2016-09-08T09:37:11.084Z,7368
2016-09-08T09:38:11.071Z,7396
2016-09-08T09:39:11.055Z,7440
2016-09-08T09:40:11.061Z,7460
2016-09-08T09:41:11.027Z,7412
2016-09-08T09:42:11.009Z,7356
2016-09-08T09:43:10.999Z,7296
2016-09-08T09:44:10.982Z,7276
2016-09-08T09:45:10.969Z,7352
2016-09-08T09:46:10.956Z,7452
2016-09-08T09:47:10.942Z,7472
2016-09-08T09:48:10.925Z,7464
2016-09-08T09:49:10.917Z,7464
2016-09-08T09:50:10.900Z,7500
2016-09-08T09:51:10.881Z,7592
2016-09-08T09:52:10.872Z,7712
2016-09-08T09:53:10.853Z,7776
2016-09-08T09:54:10.843Z,7764
2016-09-08T09:55:10.829Z,7804
2016-09-08T09:56:10.822Z,7848
2016-09-08T09:57:10.815Z,7976
2016-09-08T09:58:10.789Z,7956
2016-09-08T09:59:10.770Z,8008
2016-09-08T10:00:10.809Z,8084
2016-09-08T10:01:10.746Z,8132
2016-09-08T10:02:10.732Z,8180
2016-09-08T10:03:10.727Z,8264
2016-09-08T10:04:10.703Z,8164
2016-09-08T10:05:10.690Z,8016
2016-09-08T10:06:10.673Z,8000
2016-09-08T10:07:10.664Z,7976
2016-09-08T10:08:10.651Z,8040
2016-09-08T10:09:10.636Z,8156
2016-09-08T10:10:10.622Z,8128
2016-09-08T10:11:10.607Z,7984
2016-09-08T10:12:10.596Z,7988
2016-09-08T10:13:10.581Z,7952
2016-09-08T10:14:10.568Z,8044
2016-09-08T10:15:10.651Z,7976
2016-09-08T10:16:10.540Z,7872
2016-09-08T10:17:10.523Z,7872
2016-09-08T10:18:10.510Z,7828
2016-09-08T10:19:10.495Z,7852
2016-09-08T10:20:10.485Z,7852
2016-09-08T10:21:10.475Z,7888
2016-09-08T10:22:10.457Z,7944
2016-09-08T10:23:10.455Z,8088
2016-09-08T10:24:10.432Z,8156
2016-09-08T10:25:10.419Z,8392
2016-09-08T10:26:10.401Z,8576
2016-09-08T10:27:10.391Z,8304
2016-09-08T10:28:10.375Z,8068
2016-09-08T10:29:10.369Z,8180
2016-09-08T10:30:10.351Z,8472
2016-09-08T10:31:10.339Z,8440
2016-09-08T10:32:10.324Z,8720
2016-09-08T10:33:10.326Z,8624
2016-09-08T10:34:10.304Z,8632
2016-09-08T10:35:10.279Z,8868
2016-09-08T10:36:10.272Z,8980
2016-09-08T10:37:10.258Z,9020
2016-09-08T10:38:10.240Z,9008
2016-09-08T10:39:10.231Z,9036
2016-09-08T10:40:10.217Z,9004
2016-09-08T10:41:10.203Z,8852
2016-09-08T10:42:10.190Z,8764
2016-09-08T10:43:10.175Z,8740
2016-09-08T10:44:10.165Z,8628
2016-09-08T10:45:10.150Z,8548
2016-09-08T10:46:10.143Z,8456
2016-09-08T10:47:10.126Z,8408
2016-09-08T10:48:10.110Z,8304
2016-09-08T10:49:10.098Z,8300
2016-09-08T10:50:10.082Z,8424
2016-09-08T10:51:10.074Z,8488
2016-09-08T10:52:10.071Z,8388
2016-09-08T10:53:10.048Z,8464
2016-09-08T10:54:10.035Z,8600
2016-09-08T10:55:10.021Z,8588
2016-09-08T10:56:10.012Z,8568
2016-09-08T10:57:10.007Z,8800
2016-09-08T10:58:09.984Z,9216
2016-09-08T10:59:09.967Z,9328
2016-09-08T11:00:09.960Z,8988
2016-09-08T11:01:09.942Z,8740
2016-09-08T11:02:09.998Z,8524
2016-09-08T11:03:09.925Z,8484
2016-09-08T11:04:09.906Z,8412
2016-09-08T11:05:09.892Z,8388
2016-09-08T11:06:09.880Z,8392
2016-09-08T11:07:09.881Z,8284
2016-09-08T11:08:09.853Z,8168
2016-09-08T11:09:09.850Z,8156
2016-09-08T11:10:09.827Z,8256
2016-09-08T11:11:09.822Z,8276
2016-09-08T11:12:09.806Z,8332
2016-09-08T11:13:09.797Z,8524
2016-09-08T11:14:09.778Z,8600
2016-09-08T11:15:09.769Z,8524
2016-09-08T11:16:09.755Z,8432
2016-09-08T11:17:09.738Z,8388
2016-09-08T11:18:09.729Z,8440
2016-09-08T11:19:09.713Z,8644
2016-09-08T11:20:09.710Z,9008
2016-09-08T11:21:09.689Z,9012
2016-09-08T11:22:09.977Z,9000
2016-09-08T11:23:09.774Z,9140
2016-09-08T11:24:09.657Z,8956
2016-09-08T11:25:09.641Z,8832
2016-09-08T11:26:09.628Z,8700
2016-09-08T11:27:09.619Z,8584
2016-09-08T11:28:09.610Z,8492
2016-09-08T11:29:09.591Z,8568
2016-09-08T11:30:09.578Z,8504
2016-09-08T11:31:09.567Z,8704
2016-09-08T11:32:09.551Z,8644
2016-09-08T11:33:09.544Z,8760
2016-09-08T11:34:09.529Z,8716
2016-09-08T11:35:09.519Z,8672
2016-09-08T11:36:09.505Z,8760
2016-09-08T11:37:09.494Z,8684
2016-09-08T11:38:09.482Z,8656
2016-09-08T11:39:09.464Z,8716
2016-09-08T11:40:09.474Z,8756
2016-09-08T11:41:09.744Z,8700
2016-09-08T11:42:09.434Z,8616
2016-09-08T11:43:09.422Z,8592
2016-09-08T11:44:09.407Z,8604
2016-09-08T11:45:09.401Z,8632
2016-09-08T11:46:09.382Z,8660
2016-09-08T11:47:09.375Z,8640
2016-09-08T11:48:09.362Z,8672
2016-09-08T11:49:09.347Z,8720
2016-09-08T11:50:09.331Z,8700
2016-09-08T11:51:09.336Z,8772
2016-09-08T11:52:09.312Z,8876
2016-09-08T11:53:09.299Z,8980
2016-09-08T11:54:09.286Z,9064
2016-09-08T11:55:09.279Z,9124
2016-09-08T11:56:09.259Z,9060
2016-09-08T11:57:09.247Z,9032
2016-09-08T11:58:09.236Z,9096
2016-09-08T11:59:09.218Z,9044
2016-09-08T12:00:09.230Z,8996
2016-09-08T12:01:09.194Z,9020
2016-09-08T12:02:09.483Z,9004
2016-09-08T12:03:09.173Z,9040
2016-09-08T12:04:09.162Z,9256
2016-09-08T12:05:09.155Z,9296
2016-09-08T12:06:09.137Z,9256
2016-09-08T12:07:09.121Z,9124
2016-09-08T12:08:09.113Z,8988
2016-09-08T12:09:09.101Z,8888
2016-09-08T12:10:09.084Z,8992
2016-09-08T12:11:09.075Z,8932
2016-09-08T12:12:09.091Z,8936
2016-09-08T12:13:09.050Z,9004
2016-09-08T12:14:09.043Z,9004
2016-09-08T12:15:09.027Z,9056
2016-09-08T12:16:10.827Z,9048
2016-09-08T12:17:09.007Z,9076
2016-09-08T12:18:09.002Z,9424
2016-09-08T12:19:08.975Z,10228
2016-09-08T12:20:08.965Z,10432
2016-09-08T12:21:08.954Z,10100
2016-09-08T12:22:08.946Z,9832
2016-09-08T12:23:08.928Z,10040
2016-09-08T12:24:08.915Z,10524
2016-09-08T12:25:08.903Z,10792
2016-09-08T12:26:08.891Z,10452
2016-09-08T12:27:08.878Z,9964
2016-09-08T12:28:08.863Z,9708
2016-09-08T12:29:08.853Z,9752
2016-09-08T12:30:08.839Z,9980
2016-09-08T12:31:08.833Z,10284
2016-09-08T12:32:08.818Z,10452
2016-09-08T12:33:09.091Z,9924
2016-09-08T12:34:08.793Z,11596
2016-09-08T12:35:08.782Z,12780
2016-09-08T12:36:09.154Z,14012
2016-09-08T12:37:08.759Z,14796
2016-09-08T12:38:08.746Z,15544
2016-09-08T12:39:08.736Z,16088
2016-09-08T12:40:08.720Z,17656
2016-09-08T12:41:08.723Z,19200
2016-09-08T12:42:08.702Z,18440
2016-09-08T12:43:08.687Z,16312
2016-09-08T12:44:08.983Z,14900
2016-09-08T12:45:08.664Z,14288
2016-09-08T12:46:08.950Z,14288
2016-09-08T12:47:08.639Z,13148
2016-09-08T12:48:08.628Z,13588
2016-09-08T12:49:08.615Z,12924
2016-09-08T12:50:08.622Z,12684
2016-09-08T12:51:08.599Z,13364
2016-09-08T12:52:08.585Z,14532
2016-09-08T12:53:08.572Z,15984
2016-09-08T12:54:08.562Z,16000
2016-09-08T12:55:08.553Z,15092
2016-09-08T12:56:08.537Z,14288
2016-09-08T12:57:08.527Z,13916
2016-09-08T12:58:08.513Z,13936
2016-09-08T12:59:08.505Z,13552
2016-09-08T13:00:08.497Z,11688
2016-09-08T13:01:08.484Z,12648
2016-09-08T13:02:08.471Z,13504
2016-09-08T13:03:08.472Z,13496
2016-09-08T13:04:08.449Z,13516
2016-09-08T13:05:08.448Z,14792
2016-09-08T13:06:08.425Z,16736
2016-09-08T13:07:08.421Z,18748
2016-09-08T13:08:08.412Z,17664
2016-09-08T13:09:08.391Z,16208
2016-09-08T13:10:08.382Z,17716
2016-09-08T13:11:08.371Z,17608
2016-09-08T13:12:08.359Z,17692
2016-09-08T13:13:08.358Z,16204
2016-09-08T13:14:08.338Z,17644
2016-09-08T13:15:08.328Z,19680
2016-09-08T13:16:08.330Z,21344
2016-09-08T13:17:08.310Z,21408
2016-09-08T13:18:08.298Z,20128
2016-09-08T13:19:08.285Z,18504
2016-09-08T13:20:08.301Z,17592
2016-09-08T13:21:08.262Z,17856
2016-09-08T13:22:08.259Z,16740
2016-09-08T13:23:08.246Z,14700
2016-09-08T13:24:08.607Z,13568
2016-09-08T13:25:08.556Z,13236
2016-09-08T13:26:08.210Z,13644
2016-09-08T13:27:08.193Z,14268
2016-09-08T13:28:08.186Z,14548
2016-09-08T13:29:08.173Z,14476
2016-09-08T13:30:08.167Z,13492
2016-09-08T13:31:08.155Z,13624
2016-09-08T13:32:08.144Z,13564
2016-09-08T13:33:08.144Z,13536
2016-09-08T13:34:08.125Z,13112
2016-09-08T13:35:08.110Z,14868
2016-09-08T13:36:08.120Z,15768
2016-09-08T13:37:08.095Z,17476
2016-09-08T13:38:08.377Z,18908
2016-09-08T13:39:08.066Z,17444
2016-09-08T13:40:08.055Z,17080
2016-09-08T13:41:08.347Z,16380
2016-09-08T13:42:08.032Z,16196
2016-09-08T13:43:08.032Z,15616
2016-09-08T13:44:08.010Z,15244